Terminal Aerodrome Forecast
Issued by NWS Shreveport, LA

Home | Current Version | Previous Version | Text Only | Print | Product List | Glossary On
Versions: 1 2 3 4 5 6 7 8 9 10 11 12 13 14 15 16 17 18 19 20 21 22
045
FTUS44 KSHV 020520
TAFSHV
TAF
KSHV 020520Z 0206/0306 VRB04KT P6SM VCTS BKN035CB
      TEMPO 0206/0210 4SM TSRA BR BKN025CB
     FM021000 VRB05KT P6SM VCTS BKN020CB
      TEMPO 0210/0214 4SM TSRA BR BKN015CB
     FM021800 33009KT P6SM VCSH BKN020
     FM022300 VRB04KT P6SM SCT040 BKN080=

USA.gov is the U.S. government's official web portal to all federal, state and local government web resources and services.